Time;durP1;ratioP1;P1;durP2;ratioP2;P2;SDS_P1;SDS_P2;PMS_P1;PMS_P2;Temp;Humidity;BMP_temperature;BMP_pressure;BME280_temperature;BME280_humidity;BME280_pressure;Samples;Min_cycle;Max_cycle;Signal;HPM_P1;HPM_P2
2022/03/21 00:01:22;;;;;;;62.93;35.23;;;5.50;99.90;;;;;;4054410;29;20169;-94
2022/03/21 00:03:25;;;;;;;61.07;35.37;;;5.50;99.90;;;;;;4069949;29;20188;-93
2022/03/21 00:05:25;;;;;;;60.23;36.07;;;5.50;99.90;;;;;;4070678;29;20196;-94
2022/03/21 00:07:26;;;;;;;56.10;35.50;;;5.50;99.90;;;;;;4070093;29;20203;-94
2022/03/21 00:09:27;;;;;;;58.87;35.97;;;5.50;99.90;;;;;;4054354;29;20177;-93
2022/03/21 00:11:28;;;;;;;57.60;35.33;;;5.50;99.90;;;;;;4054703;29;20185;-93
2022/03/21 00:13:29;;;;;;;57.57;34.83;;;5.50;99.90;;;;;;4069880;29;20187;-95
2022/03/21 00:15:32;;;;;;;59.70;36.53;;;5.60;99.90;;;;;;4069648;29;20200;-93
2022/03/21 00:17:34;;;;;;;58.23;36.37;;;5.60;99.90;;;;;;4070566;29;20176;-94
2022/03/21 00:19:34;;;;;;;59.00;35.40;;;5.60;99.90;;;;;;4053861;29;20228;-95
2022/03/21 00:21:35;;;;;;;58.07;37.23;;;5.60;99.90;;;;;;4070000;29;20600;-94
2022/03/21 00:23:36;;;;;;;60.40;35.63;;;5.70;99.90;;;;;;4069448;29;20185;-93
2022/03/21 00:25:37;;;;;;;60.33;36.43;;;5.60;99.90;;;;;;4069112;29;20188;-94
2022/03/21 00:27:38;;;;;;;59.13;36.50;;;5.70;99.90;;;;;;4069682;29;20172;-93
2022/03/21 00:29:43;;;;;;;58.87;36.57;;;5.70;99.90;;;;;;4054395;29;20173;-93
2022/03/21 00:31:44;;;;;;;61.60;36.60;;;5.70;99.90;;;;;;4069511;29;20653;-94
2022/03/21 00:33:46;;;;;;;57.63;35.67;;;5.70;99.90;;;;;;4069617;29;20172;-94
2022/03/21 00:35:50;;;;;;;56.13;35.90;;;5.70;99.90;;;;;;4053750;29;20215;-93
2022/03/21 00:37:50;;;;;;;59.83;37.37;;;5.70;99.90;;;;;;4068969;29;20712;-94
2022/03/21 00:39:51;;;;;;;59.00;36.53;;;5.80;99.90;;;;;;4053258;29;20184;-94
2022/03/21 00:41:52;;;;;;;60.57;36.80;;;5.80;99.90;;;;;;4069231;29;20191;-94
2022/03/21 00:46:02;;;;;;;65.77;36.83;;;5.70;99.90;;;;;;4082700;29;20621;-92
2022/03/21 00:48:03;;;;;;;55.63;35.23;;;5.70;99.90;;;;;;4068770;29;20177;-92
2022/03/21 00:50:06;;;;;;;60.23;36.73;;;5.60;99.90;;;;;;4068782;29;20184;-92
2022/03/21 00:52:07;;;;;;;59.83;35.10;;;5.60;99.90;;;;;;4084372;29;20176;-92
2022/03/21 00:54:08;;;;;;;58.77;34.00;;;5.50;99.90;;;;;;4068543;29;20177;-92
2022/03/21 00:56:09;;;;;;;54.80;34.63;;;5.40;99.90;;;;;;4068268;29;20286;-93
2022/03/21 00:58:10;;;;;;;56.37;35.40;;;5.30;99.90;;;;;;4068610;29;20669;-92
2022/03/21 01:00:16;;;;;;;58.77;35.63;;;5.40;99.90;;;;;;4068527;29;20267;-92
2022/03/21 01:02:17;;;;;;;53.57;32.97;;;5.40;99.90;;;;;;4068498;29;20741;-92
2022/03/21 01:04:18;;;;;;;59.40;35.67;;;5.40;99.90;;;;;;4084017;29;20171;-93
2022/03/21 01:06:19;;;;;;;55.10;34.90;;;5.30;99.90;;;;;;4068108;29;20202;-92
2022/03/21 01:08:19;;;;;;;56.23;35.83;;;5.30;99.90;;;;;;4068467;29;20228;-92
2022/03/21 01:10:21;;;;;;;55.93;35.17;;;5.20;99.90;;;;;;4069099;29;20180;-92
2022/03/21 01:12:23;;;;;;;52.90;34.03;;;5.20;99.90;;;;;;4068390;29;20172;-93
2022/03/21 01:14:23;;;;;;;54.47;34.17;;;5.20;99.90;;;;;;4068494;29;20617;-93
2022/03/21 01:16:24;;;;;;;61.70;35.53;;;5.30;99.90;;;;;;4084128;29;20262;-92
2022/03/21 01:18:25;;;;;;;55.10;33.40;;;5.40;99.90;;;;;;4084105;29;20560;-92
2022/03/21 01:20:27;;;;;;;53.93;33.90;;;5.50;99.90;;;;;;4068503;29;20184;-92
2022/03/21 01:22:27;;;;;;;58.40;34.07;;;5.50;99.90;;;;;;4100152;28;20178;-92
2022/03/21 01:24:28;;;;;;;56.60;32.80;;;5.50;99.90;;;;;;4068624;29;20203;-92
2022/03/21 01:26:29;;;;;;;57.37;34.00;;;5.50;99.90;;;;;;4099618;28;20198;-92
2022/03/21 01:28:30;;;;;;;57.63;34.33;;;5.50;99.90;;;;;;4068908;29;20204;-91
2022/03/21 01:30:31;;;;;;;58.10;34.43;;;5.50;99.90;;;;;;4100034;28;20262;-92
2022/03/21 01:32:34;;;;;;;50.87;33.43;;;5.50;99.90;;;;;;4083862;28;20176;-92
2022/03/21 01:34:35;;;;;;;55.73;34.10;;;5.50;99.90;;;;;;4084074;29;20183;-92
2022/03/21 01:36:36;;;;;;;49.43;31.77;;;5.40;99.90;;;;;;4083937;29;20196;-92
2022/03/21 01:38:37;;;;;;;55.87;34.40;;;5.30;99.90;;;;;;4068224;29;20216;-93
2022/03/21 01:40:37;;;;;;;58.77;33.63;;;5.20;99.90;;;;;;4083926;29;20267;-92
2022/03/21 01:42:43;;;;;;;51.00;32.10;;;5.10;99.90;;;;;;4068250;29;20188;-91
2022/03/21 01:44:44;;;;;;;57.40;33.63;;;5.10;99.90;;;;;;4083995;29;20541;-92
2022/03/21 01:46:45;;;;;;;53.60;32.47;;;5.10;99.90;;;;;;4084105;29;20196;-93
2022/03/21 01:48:45;;;;;;;51.20;31.40;;;5.10;99.90;;;;;;4084165;29;20167;-92
2022/03/21 01:50:46;;;;;;;53.00;32.70;;;5.10;99.90;;;;;;4068246;29;20688;-93
2022/03/21 01:52:47;;;;;;;51.90;31.60;;;5.20;99.90;;;;;;4070115;29;20171;-92
2022/03/21 01:57:09;;;;;;;53.37;31.30;;;5.20;99.90;;;;;;4086461;29;20167;-92
2022/03/21 01:59:11;;;;;;;51.73;30.20;;;5.20;99.90;;;;;;4070824;29;20218;-92
2022/03/21 02:01:12;;;;;;;51.53;29.57;;;5.30;99.90;;;;;;4070905;29;20227;-92
2022/03/21 02:03:14;;;;;;;55.27;30.80;;;5.30;99.90;;;;;;4086786;29;20223;-93
2022/03/21 02:05:14;;;;;;;52.23;30.63;;;5.40;99.90;;;;;;4071042;29;20176;-92
2022/03/21 02:07:15;;;;;;;51.40;31.07;;;5.40;99.90;;;;;;4086590;29;20274;-93
2022/03/21 02:09:16;;;;;;;54.30;31.83;;;5.40;99.90;;;;;;4070909;29;20271;-92
2022/03/21 02:11:19;;;;;;;52.10;29.90;;;5.50;99.90;;;;;;4070747;29;20255;-91
2022/03/21 02:13:21;;;;;;;50.33;30.07;;;5.50;99.90;;;;;;4070922;29;20684;-93
2022/03/21 02:15:22;;;;;;;47.23;28.90;;;5.50;99.90;;;;;;4070916;29;20593;-92
2022/03/21 02:17:26;;;;;;;51.73;28.70;;;5.50;99.90;;;;;;4070844;29;20172;-92
2022/03/21 02:19:36;;;;;;;48.37;28.17;;;5.50;99.90;;;;;;4071008;29;20323;-93
2022/03/21 02:21:58;;;;;;;45.13;28.43;;;5.50;99.90;;;;;;4070876;29;20179;-93
2022/03/21 02:24:07;;;;;;;47.67;27.70;;;5.50;99.90;;;;;;4070664;29;20183;-92
2022/03/21 02:26:10;;;;;;;45.80;27.63;;;5.50;99.90;;;;;;4070462;29;20195;-93
2022/03/21 02:28:15;;;;;;;47.30;29.10;;;5.50;99.90;;;;;;4070916;29;20206;-92
2022/03/21 02:30:17;;;;;;;45.20;27.57;;;5.50;99.90;;;;;;4070858;29;20263;-94
2022/03/21 02:32:19;;;;;;;45.40;27.57;;;5.50;99.90;;;;;;4070783;29;20248;-91
2022/03/21 02:34:22;;;;;;;41.83;26.77;;;5.60;99.90;;;;;;4070675;29;20172;-92
2022/03/21 02:36:26;;;;;;;45.60;27.83;;;5.60;99.90;;;;;;4071275;29;20291;-92
2022/03/21 02:38:28;;;;;;;52.03;28.07;;;5.60;99.90;;;;;;4070348;29;20207;-92
2022/03/21 02:40:32;;;;;;;45.10;26.70;;;5.70;99.90;;;;;;4070349;29;20287;-91
2022/03/21 02:42:32;;;;;;;44.87;27.27;;;5.70;99.90;;;;;;4070414;29;20176;-91
2022/03/21 02:44:37;;;;;;;49.63;27.70;;;5.70;99.90;;;;;;4070454;29;20223;-93
2022/03/21 02:46:38;;;;;;;45.63;28.63;;;5.70;99.90;;;;;;4070414;29;20192;-93
2022/03/21 02:48:41;;;;;;;42.57;27.20;;;5.60;99.90;;;;;;4085993;29;20216;-92
2022/03/21 02:50:55;;;;;;;44.93;26.73;;;5.60;99.90;;;;;;4070500;29;20176;-93
2022/03/21 02:52:57;;;;;;;50.80;26.80;;;5.70;99.90;;;;;;4102014;28;20186;-93
2022/03/21 02:54:58;;;;;;;52.23;30.53;;;5.70;99.90;;;;;;4085828;29;20176;-93
2022/03/21 02:56:59;;;;;;;50.60;32.03;;;6.00;99.90;;;;;;4085777;29;20648;-93
2022/03/21 02:59:00;;;;;;;47.67;29.03;;;6.20;99.90;;;;;;4070222;29;20331;-92
2022/03/21 03:01:14;;;;;;;47.13;29.67;;;6.20;99.90;;;;;;4086192;29;20579;-93
2022/03/21 03:03:15;;;;;;;48.23;30.13;;;6.10;99.90;;;;;;4069664;29;20179;-94
2022/03/21 03:05:16;;;;;;;56.10;30.70;;;6.00;99.90;;;;;;4069684;29;20239;-92
2022/03/21 03:07:17;;;;;;;53.37;32.80;;;6.00;99.90;;;;;;4085666;29;20267;-92
2022/03/21 03:09:18;;;;;;;57.53;33.03;;;6.00;99.90;;;;;;4069964;29;20184;-92
2022/03/21 03:11:19;;;;;;;53.40;33.00;;;6.00;99.90;;;;;;4069858;29;20172;-92
2022/03/21 03:13:19;;;;;;;54.50;33.20;;;5.90;99.90;;;;;;4069843;29;20226;-93
2022/03/21 03:15:24;;;;;;;52.23;30.53;;;5.90;99.90;;;;;;4085553;29;20195;-93
2022/03/21 03:17:25;;;;;;;47.77;30.60;;;5.80;99.90;;;;;;4085372;29;20206;-93
2022/03/21 03:19:25;;;;;;;49.50;29.73;;;5.80;99.90;;;;;;4069931;29;20223;-92
2022/03/21 03:21:30;;;;;;;45.77;27.73;;;5.80;99.90;;;;;;4070197;29;20172;-92
2022/03/21 03:23:33;;;;;;;47.87;28.27;;;5.70;99.90;;;;;;4069838;29;20268;-93
2022/03/21 03:25:35;;;;;;;46.80;26.60;;;5.50;99.90;;;;;;4085316;29;20247;-94
2022/03/21 03:27:36;;;;;;;42.13;23.60;;;5.40;99.90;;;;;;4070013;29;20184;-93
2022/03/21 03:29:37;;;;;;;42.80;26.67;;;5.30;99.90;;;;;;4085791;29;20265;-92
2022/03/21 03:31:39;;;;;;;44.90;24.30;;;5.20;99.90;;;;;;4069796;29;20204;-91
2022/03/21 03:33:41;;;;;;;42.60;23.73;;;5.30;99.90;;;;;;4085660;29;20179;-92
2022/03/21 03:35:42;;;;;;;40.77;24.33;;;5.20;99.90;;;;;;4085448;29;20187;-93
2022/03/21 03:37:43;;;;;;;40.20;23.97;;;5.30;99.90;;;;;;4069511;29;20235;-92
2022/03/21 03:39:44;;;;;;;39.97;23.57;;;5.30;99.90;;;;;;4069440;29;20220;-92
2022/03/21 03:41:45;;;;;;;41.93;23.73;;;5.30;99.90;;;;;;4084956;29;20202;-94
2022/03/21 03:43:48;;;;;;;42.73;24.87;;;5.30;99.90;;;;;;4069668;29;20204;-92
2022/03/21 03:45:52;;;;;;;44.80;23.87;;;5.40;99.90;;;;;;4069520;29;20215;-92
2022/03/21 03:47:53;;;;;;;44.10;23.77;;;5.40;99.90;;;;;;4069393;29;20324;-93
2022/03/21 03:49:54;;;;;;;41.30;23.63;;;5.40;99.90;;;;;;4085052;29;20176;-93
2022/03/21 03:51:54;;;;;;;36.47;21.20;;;5.40;99.90;;;;;;4069419;29;20204;-92
2022/03/21 03:53:56;;;;;;;35.87;21.87;;;5.30;99.90;;;;;;4069265;29;20178;-93
2022/03/21 03:55:56;;;;;;;36.37;21.83;;;5.30;99.90;;;;;;4084888;29;20249;-93
2022/03/21 03:57:57;;;;;;;36.97;21.40;;;5.40;99.90;;;;;;4069367;29;20180;-93
2022/03/21 03:59:58;;;;;;;36.93;21.67;;;5.40;99.90;;;;;;4069385;29;20322;-93
2022/03/21 04:01:58;;;;;;;36.17;21.30;;;5.40;99.90;;;;;;4071043;29;20207;-93
2022/03/21 04:04:00;;;;;;;37.20;21.30;;;5.40;99.90;;;;;;4069007;29;20176;-93
2022/03/21 04:06:01;;;;;;;37.97;21.23;;;5.40;99.90;;;;;;4069180;29;20684;-93
2022/03/21 04:08:02;;;;;;;37.37;21.70;;;5.50;99.90;;;;;;4070973;29;20168;-93
2022/03/21 04:10:03;;;;;;;36.67;22.00;;;5.40;99.90;;;;;;4084971;29;20540;-91
2022/03/21 04:12:04;;;;;;;36.57;21.57;;;5.40;99.90;;;;;;4069344;29;20263;-92
2022/03/21 04:14:04;;;;;;;39.90;22.07;;;5.40;99.90;;;;;;4069174;29;20720;-93
2022/03/21 04:16:06;;;;;;;37.93;21.40;;;5.50;99.90;;;;;;4084493;29;20226;-92
2022/03/21 04:18:07;;;;;;;37.00;21.47;;;5.50;99.90;;;;;;4084607;29;20254;-92
2022/03/21 04:20:08;;;;;;;34.00;19.70;;;5.50;99.90;;;;;;4084903;29;20183;-93
2022/03/21 04:22:09;;;;;;;36.00;19.70;;;5.50;99.90;;;;;;4069113;29;20177;-94
2022/03/21 04:24:10;;;;;;;34.93;19.60;;;5.50;99.90;;;;;;4084928;29;20179;-92
2022/03/21 04:26:12;;;;;;;35.23;19.70;;;5.50;99.90;;;;;;4069026;29;20204;-93
2022/03/21 04:28:14;;;;;;;33.73;20.37;;;5.30;99.90;;;;;;4069177;29;20179;-92
2022/03/21 04:30:15;;;;;;;34.57;19.53;;;5.30;99.90;;;;;;4069039;29;20241;-93
2022/03/21 04:32:16;;;;;;;36.57;20.90;;;5.30;99.90;;;;;;4069075;29;20187;-92
2022/03/21 04:34:17;;;;;;;33.20;19.90;;;5.20;99.90;;;;;;4084647;29;20179;-91
2022/03/21 04:36:19;;;;;;;34.50;20.53;;;5.20;99.90;;;;;;4068722;29;20657;-94
2022/03/21 04:38:20;;;;;;;39.40;20.77;;;5.20;99.90;;;;;;4084542;29;20208;-92
2022/03/21 04:40:20;;;;;;;33.73;19.77;;;5.30;99.90;;;;;;4084479;29;20239;-93
2022/03/21 04:42:22;;;;;;;33.10;19.33;;;5.40;99.90;;;;;;4068840;29;20228;-92
2022/03/21 04:44:23;;;;;;;31.63;18.10;;;5.30;99.90;;;;;;4084321;29;20214;-92
2022/03/21 04:46:25;;;;;;;28.27;17.97;;;5.20;99.90;;;;;;4084444;29;20191;-93
2022/03/21 04:48:25;;;;;;;37.50;19.53;;;5.30;99.90;;;;;;4068711;29;20204;-92
2022/03/21 04:50:27;;;;;;;35.97;19.00;;;5.30;99.90;;;;;;4100108;28;20525;-92
2022/03/21 04:52:28;;;;;;;31.07;18.37;;;5.30;99.90;;;;;;4084522;29;20187;-93
2022/03/21 04:54:28;;;;;;;33.23;18.67;;;5.30;99.90;;;;;;4100107;28;20179;-92
2022/03/21 04:56:29;;;;;;;32.60;18.53;;;5.30;99.90;;;;;;4068523;29;20198;-94
2022/03/21 04:58:30;;;;;;;32.83;18.10;;;5.20;99.90;;;;;;4099899;28;20250;-92
2022/03/21 05:00:31;;;;;;;32.70;18.20;;;5.20;99.90;;;;;;4068635;29;20199;-92
2022/03/21 05:02:31;;;;;;;29.90;17.57;;;5.10;99.90;;;;;;4084238;29;20262;-92
2022/03/21 05:04:34;;;;;;;33.83;16.97;;;5.20;99.90;;;;;;4084200;29;20171;-92
2022/03/21 05:06:35;;;;;;;31.27;18.20;;;5.20;99.90;;;;;;4084283;29;20633;-92
2022/03/21 05:08:35;;;;;;;37.40;18.03;;;5.20;99.90;;;;;;4069454;29;20184;-92
2022/03/21 05:10:36;;;;;;;29.83;17.37;;;5.30;99.90;;;;;;4084474;29;20180;-93
2022/03/21 05:12:37;;;;;;;35.33;17.40;;;5.20;99.90;;;;;;4068520;29;20626;-93
2022/03/21 05:14:38;;;;;;;30.73;17.87;;;5.30;99.90;;;;;;4084200;29;20175;-93
2022/03/21 05:16:39;;;;;;;32.27;18.13;;;5.20;99.90;;;;;;4068354;29;20230;-92
2022/03/21 05:18:40;;;;;;;32.67;17.97;;;5.30;99.90;;;;;;4083890;29;20238;-93
2022/03/21 05:20:41;;;;;;;37.30;17.57;;;5.30;99.90;;;;;;4068431;29;20541;-93
2022/03/21 05:22:43;;;;;;;28.73;17.10;;;5.30;99.90;;;;;;4084227;29;20263;-92
2022/03/21 05:31:42;;;;;;;29.50;17.00;;;5.30;99.90;;;;;;4103083;28;20186;-93
2022/03/21 05:36:02;;;;;;;24.67;15.33;;;5.30;99.90;;;;;;4087118;29;20209;-93
2022/03/21 05:38:02;;;;;;;28.00;15.60;;;5.20;99.90;;;;;;4071601;29;20180;-93
2022/03/21 05:42:24;;;;;;;28.60;15.63;;;5.30;99.90;;;;;;4087235;29;20186;-93
2022/03/21 05:44:25;;;;;;;26.87;14.97;;;5.30;99.90;;;;;;4071070;29;20684;-92
2022/03/21 05:46:26;;;;;;;27.30;15.87;;;5.40;99.90;;;;;;4071186;29;20224;-92
2022/03/21 05:50:47;;;;;;;24.03;14.53;;;5.40;99.90;;;;;;4087120;29;20183;-93
2022/03/21 05:52:48;;;;;;;25.17;14.20;;;5.30;99.90;;;;;;4086901;29;20560;-92
2022/03/21 05:54:49;;;;;;;24.23;14.13;;;5.30;99.90;;;;;;4071325;29;20565;-93
2022/03/21 05:56:49;;;;;;;29.50;15.97;;;5.30;99.90;;;;;;4086846;29;20239;-92
2022/03/21 05:58:51;;;;;;;27.73;16.10;;;5.40;99.90;;;;;;4071859;29;20306;-91
2022/03/21 06:00:52;;;;;;;36.03;16.10;;;5.40;99.90;;;;;;4071305;29;20661;-94
2022/03/21 06:02:54;;;;;;;27.40;15.40;;;5.50;99.90;;;;;;4071007;29;20215;-92
2022/03/21 06:04:54;;;;;;;30.60;15.53;;;5.50;99.90;;;;;;4071052;29;20236;-92
2022/03/21 06:06:55;;;;;;;27.80;15.30;;;5.60;99.90;;;;;;4071951;29;20599;-93
2022/03/21 06:08:56;;;;;;;27.20;15.67;;;5.60;99.90;;;;;;4070947;29;20176;-93
2022/03/21 06:11:08;;;;;;;27.77;16.40;;;5.60;99.90;;;;;;4070867;29;20542;-93
2022/03/21 06:13:11;;;;;;;29.20;16.57;;;5.60;99.90;;;;;;4071012;29;20228;-91
2022/03/21 06:15:12;;;;;;;27.10;15.93;;;5.60;99.90;;;;;;4070972;29;20180;-92
2022/03/21 06:17:12;;;;;;;25.27;14.63;;;5.60;99.90;;;;;;4102524;28;20242;-93
2022/03/21 06:19:13;;;;;;;27.17;16.27;;;5.60;99.90;;;;;;4071006;29;20216;-93
2022/03/21 06:21:14;;;;;;;27.57;14.60;;;5.70;99.90;;;;;;4086627;29;20176;-92
2022/03/21 06:23:15;;;;;;;26.03;15.10;;;5.80;99.90;;;;;;4086662;29;20176;-92
2022/03/21 06:25:16;;;;;;;31.70;15.20;;;5.80;99.90;;;;;;4092870;29;20183;-93
2022/03/21 06:27:17;;;;;;;29.07;16.07;;;5.90;99.90;;;;;;4097029;29;20601;-93
2022/03/21 06:29:18;;;;;;;32.97;15.07;;;5.90;99.90;;;;;;4112583;28;20559;-92
2022/03/21 06:31:20;;;;;;;29.20;14.17;;;6.00;99.90;;;;;;4071939;29;20169;-92
2022/03/21 06:33:27;;;;;;;26.60;14.07;;;6.10;99.90;;;;;;4088462;29;20182;-92
2022/03/21 06:35:27;;;;;;;27.77;13.87;;;6.10;99.90;;;;;;4070683;29;20204;-93
2022/03/21 06:37:28;;;;;;;24.13;13.67;;;6.30;99.90;;;;;;4086483;29;20184;-93
2022/03/21 06:39:29;;;;;;;25.23;14.17;;;6.40;99.90;;;;;;4073566;29;20296;-92
2022/03/21 06:41:29;;;;;;;25.60;14.17;;;6.50;99.90;;;;;;4103862;28;20599;-93
2022/03/21 06:43:30;;;;;;;24.13;13.20;;;6.60;99.90;;;;;;4077699;29;20275;-93
2022/03/21 06:46:09;;;;;;;26.53;13.80;;;6.70;99.90;;;;;;4101118;28;20199;-94
2022/03/21 06:48:10;;;;;;;26.30;14.10;;;6.80;99.90;;;;;;4088675;29;20198;-93
2022/03/21 06:50:11;;;;;;;28.87;13.90;;;6.90;99.90;;;;;;4070455;29;20187;-92
2022/03/21 06:52:12;;;;;;;26.63;13.80;;;7.00;99.90;;;;;;4070919;29;20245;-92
2022/03/21 06:54:13;;;;;;;26.70;14.63;;;7.20;99.90;;;;;;4070715;29;20224;-93
2022/03/21 06:56:14;;;;;;;23.30;13.17;;;7.20;99.90;;;;;;4085899;29;20203;-93
2022/03/21 06:58:15;;;;;;;26.50;14.03;;;7.50;99.90;;;;;;4071239;29;20184;-93
2022/03/21 07:00:17;;;;;;;26.63;13.97;;;7.50;99.90;;;;;;4070539;29;20268;-91
2022/03/21 07:02:19;;;;;;;27.77;13.10;;;7.70;99.90;;;;;;4088550;29;20187;-93
2022/03/21 07:04:21;;;;;;;21.20;12.80;;;8.20;99.90;;;;;;4075542;29;20207;-92
2022/03/21 07:06:21;;;;;;;19.13;12.30;;;9.00;99.90;;;;;;4077231;29;20196;-92
2022/03/21 07:08:22;;;;;;;26.60;12.33;;;9.80;99.90;;;;;;4072638;29;20185;-93
2022/03/21 07:10:23;;;;;;;19.70;11.97;;;10.50;99.90;;;;;;4077846;29;20156;-89
2022/03/21 07:12:24;;;;;;;20.30;11.83;;;11.40;99.90;;;;;;4077549;29;20184;-93
2022/03/21 07:14:39;;;;;;;22.73;11.85;;;12.00;99.90;;;;;;4092333;28;20154;-93
2022/03/21 07:16:41;;;;;;;23.35;11.35;;;12.50;99.90;;;;;;4089135;29;20246;-92
2022/03/21 07:18:43;;;;;;;21.33;12.35;;;13.40;99.90;;;;;;4069999;29;20842;-93
2022/03/21 07:20:44;;;;;;;20.80;11.30;;;13.80;99.90;;;;;;4085766;29;20237;-94
2022/03/21 07:22:46;;;;;;;36.03;12.15;;;14.30;99.90;;;;;;4070617;29;20176;-92
2022/03/21 07:24:47;;;;;;;27.05;12.23;;;15.20;99.90;;;;;;4088078;29;20211;-93
2022/03/21 07:26:48;;;;;;;19.88;12.18;;;15.60;99.90;;;;;;4093303;29;20184;-93
2022/03/21 07:28:52;;;;;;;22.50;11.50;;;15.00;99.90;;;;;;4102066;28;20168;-91
2022/03/21 07:30:53;;;;;;;21.33;12.20;;;14.90;99.90;;;;;;4087103;29;20573;-94
2022/03/21 07:32:59;;;;;;;20.50;12.18;;;15.00;99.90;;;;;;4075167;29;20183;-92
2022/03/21 07:35:00;;;;;;;20.95;13.05;;;15.40;99.90;;;;;;4093409;29;20213;-92
2022/03/21 07:37:01;;;;;;;19.13;12.00;;;15.70;99.90;;;;;;4093857;28;20180;-94
2022/03/21 07:39:04;;;;;;;20.75;11.80;;;15.70;99.90;;;;;;4087824;29;20726;-93
2022/03/21 07:41:07;;;;;;;21.50;11.57;;;15.90;99.90;;;;;;4069898;29;20187;-95
2022/03/21 07:43:08;;;;;;;21.23;12.10;;;16.60;99.90;;;;;;4091255;29;20175;-95
2022/03/21 07:47:29;;;;;;;24.00;12.85;;;16.70;99.90;;;;;;4086417;29;20274;-95
2022/03/21 07:49:30;;;;;;;22.55;13.68;;;16.30;99.90;;;;;;4075475;29;20183;-94
2022/03/21 07:51:31;;;;;;;28.88;13.68;;;16.30;99.90;;;;;;4074800;29;20581;-96
2022/03/21 07:53:32;;;;;;;24.60;13.88;;;16.10;99.90;;;;;;4070599;29;20172;-93
2022/03/21 07:55:33;;;;;;;23.63;14.15;;;16.80;99.90;;;;;;4085162;29;20291;-94
2022/03/21 07:57:34;;;;;;;22.20;13.65;;;17.50;99.90;;;;;;4069748;29;20264;-94
2022/03/21 07:59:35;;;;;;;25.38;12.93;;;18.00;99.90;;;;;;4069308;29;20180;-95
2022/03/21 08:01:37;;;;;;;19.40;12.82;;;18.00;99.90;;;;;;4069471;29;20649;-94
2022/03/21 08:03:37;;;;;;;21.17;13.23;;;18.20;99.90;;;;;;4069828;29;20180;-95
2022/03/21 08:05:38;;;;;;;23.98;12.65;;;18.60;99.90;;;;;;4101953;28;20563;-94
2022/03/21 08:07:39;;;;;;;20.95;12.57;;;18.00;99.90;;;;;;4070034;29;20266;-94
2022/03/21 08:09:40;;;;;;;20.52;12.63;;;17.10;99.90;;;;;;4100798;28;20230;-94
2022/03/21 08:11:41;;;;;;;21.38;12.45;;;16.70;99.90;;;;;;4072654;29;20168;-94
2022/03/21 08:13:42;;;;;;;23.80;12.93;;;16.50;99.90;;;;;;4102317;28;20178;-93
2022/03/21 08:15:52;;;;;;;18.05;12.35;;;16.10;99.90;;;;;;4085003;29;20187;-94
2022/03/21 08:17:57;;;;;;;20.48;12.68;;;16.30;99.90;;;;;;4086010;29;20180;-93
2022/03/21 08:19:58;;;;;;;19.60;11.77;;;16.90;99.90;;;;;;4085006;29;20212;-94
2022/03/21 08:21:59;;;;;;;22.63;13.40;;;17.50;99.90;;;;;;4085739;29;20541;-93
2022/03/21 08:24:00;;;;;;;20.40;12.48;;;17.70;99.90;;;;;;4069108;29;20176;-94
2022/03/21 08:26:01;;;;;;;23.67;12.88;;;18.50;99.90;;;;;;4068962;29;20192;-93
2022/03/21 08:28:02;;;;;;;24.02;12.52;;;18.60;99.90;;;;;;4071595;29;20191;-93
2022/03/21 08:30:03;;;;;;;23.67;12.68;;;18.60;99.90;;;;;;4071775;29;20696;-95
2022/03/21 08:32:04;;;;;;;23.27;12.68;;;19.10;99.90;;;;;;4068769;29;20183;-93
2022/03/21 08:34:05;;;;;;;17.13;11.32;;;19.30;99.90;;;;;;4068771;29;20208;-94
2022/03/21 08:36:06;;;;;;;26.00;12.18;;;19.20;99.90;;;;;;4084427;29;20212;-93
2022/03/21 08:38:08;;;;;;;22.05;11.57;;;19.60;99.90;;;;;;4068723;29;20172;-93
2022/03/21 08:40:10;;;;;;;22.83;12.48;;;20.00;99.90;;;;;;4084631;29;20673;-94
2022/03/21 08:42:11;;;;;;;22.10;12.50;;;20.00;99.90;;;;;;4071394;29;20176;-94
2022/03/21 08:44:12;;;;;;;21.58;12.27;;;19.70;99.90;;;;;;4075122;29;20577;-92
2022/03/21 08:46:13;;;;;;;24.48;11.75;;;20.30;99.90;;;;;;4069625;29;20192;-94
2022/03/21 08:48:14;;;;;;;23.67;13.15;;;20.40;99.90;;;;;;4068813;29;20188;-94
2022/03/21 08:50:15;;;;;;;21.33;12.52;;;19.60;99.90;;;;;;4068745;29;20263;-93
2022/03/21 08:52:15;;;;;;;21.65;13.25;;;20.00;99.90;;;;;;4068927;29;20906;-94
2022/03/21 08:54:16;;;;;;;21.42;12.93;;;20.70;99.90;;;;;;4084867;29;20175;-94
2022/03/21 08:56:17;;;;;;;26.10;13.10;;;19.40;99.90;;;;;;4068617;29;20593;-94
2022/03/21 08:58:19;;;;;;;22.00;13.25;;;19.60;99.90;;;;;;4084813;29;20354;-91
2022/03/21 09:00:20;;;;;;;19.48;13.38;;;18.80;99.90;;;;;;4069037;29;20625;-91
2022/03/21 09:02:20;;;;;;;23.70;13.50;;;19.10;99.90;;;;;;4069570;29;20182;-92
2022/03/21 09:04:21;;;;;;;23.10;13.52;;;19.40;99.90;;;;;;4068973;29;20215;-92
2022/03/21 09:06:22;;;;;;;22.92;13.60;;;19.20;99.90;;;;;;4069341;29;20192;-92
2022/03/21 09:08:23;;;;;;;24.48;14.02;;;19.60;99.90;;;;;;4084227;29;20184;-92
2022/03/21 09:10:23;;;;;;;26.33;14.32;;;18.90;99.90;;;;;;4068620;29;20183;-91
2022/03/21 09:12:24;;;;;;;20.52;13.40;;;19.40;99.90;;;;;;4084326;29;20238;-93
2022/03/21 09:14:25;;;;;;;23.48;14.30;;;19.80;99.90;;;;;;4068610;29;20184;-92
2022/03/21 09:16:27;;;;;;;35.03;14.25;;;20.10;99.90;;;;;;4068253;29;20204;-93
2022/03/21 09:18:27;;;;;;;25.13;15.00;;;19.70;99.90;;;;;;4068466;29;20172;-92
2022/03/21 09:20:29;;;;;;;25.80;14.02;;;19.40;99.90;;;;;;4068339;29;20183;-93
2022/03/21 09:22:29;;;;;;;25.52;14.30;;;19.50;99.90;;;;;;4070487;29;20164;-92
2022/03/21 09:24:30;;;;;;;19.63;13.93;;;19.60;99.90;;;;;;4068280;29;20243;-92
2022/03/21 09:26:31;;;;;;;27.60;14.77;;;19.90;99.90;;;;;;4068131;29;20204;-92
2022/03/21 09:28:33;;;;;;;23.33;14.63;;;19.90;99.90;;;;;;4068461;29;20305;-92
2022/03/21 09:30:36;;;;;;;24.05;15.60;;;20.10;99.90;;;;;;4084823;29;20191;-92
2022/03/21 09:32:37;;;;;;;22.77;14.60;;;20.00;99.90;;;;;;4084968;29;20172;-94
2022/03/21 09:34:39;;;;;;;26.00;15.27;;;20.10;99.90;;;;;;4084189;29;20187;-93
2022/03/21 09:36:40;;;;;;;26.55;15.70;;;19.50;99.90;;;;;;4083935;29;20187;-92
2022/03/21 09:38:41;;;;;;;25.00;15.48;;;20.10;99.90;;;;;;4068575;29;20183;-92
2022/03/21 09:40:42;;;;;;;21.65;14.75;;;20.30;99.90;;;;;;4083864;29;20175;-93
2022/03/21 09:42:44;;;;;;;23.98;15.52;;;20.30;99.90;;;;;;4068426;29;20176;-94
2022/03/21 09:44:46;;;;;;;24.80;15.88;;;19.80;99.90;;;;;;4084261;29;20246;-92
2022/03/21 09:46:48;;;;;;;23.92;15.80;;;18.70;99.90;;;;;;4067983;29;20260;-94
2022/03/21 09:48:53;;;;;;;27.45;15.43;;;18.70;99.90;;;;;;4068379;29;20215;-92
2022/03/21 09:50:56;;;;;;;22.90;15.18;;;19.30;99.90;;;;;;4068193;29;20188;-94
2022/03/21 09:52:59;;;;;;;23.83;14.77;;;19.20;99.90;;;;;;4068363;29;20181;-95
2022/03/21 09:55:01;;;;;;;25.08;15.52;;;19.40;99.90;;;;;;4067952;29;20188;-94
2022/03/21 09:57:02;;;;;;;21.48;15.20;;;19.70;99.90;;;;;;4068076;29;20231;-93
2022/03/21 09:59:13;;;;;;;24.38;15.40;;;20.30;99.90;;;;;;4083759;29;20222;-95
2022/03/21 10:01:32;;;;;;;25.35;16.13;;;20.20;99.90;;;;;;4085677;29;20168;-95
2022/03/21 10:03:35;;;;;;;33.63;16.52;;;20.60;99.90;;;;;;4085197;29;20278;-95
2022/03/21 10:05:41;;;;;;;31.58;15.90;;;20.20;99.90;;;;;;4068680;29;20196;-94
2022/03/21 10:07:45;;;;;;;23.52;16.17;;;19.60;99.90;;;;;;4086507;29;20230;-94
2022/03/21 10:10:08;;;;;;;28.48;16.80;;;19.10;99.90;;;;;;4069619;29;20208;-95
2022/03/21 10:12:11;;;;;;;27.77;16.08;;;18.70;99.90;;;;;;4068668;29;20208;-94
2022/03/21 10:14:33;;;;;;;27.42;17.10;;;18.80;99.90;;;;;;4086636;29;20219;-93
2022/03/21 10:16:48;;;;;;;31.00;17.08;;;18.90;99.90;;;;;;4072188;29;20302;-94
2022/03/21 10:18:52;;;;;;;32.95;16.95;;;18.60;99.90;;;;;;4087357;29;20179;-94
2022/03/21 10:20:52;;;;;;;29.05;17.42;;;18.00;99.90;;;;;;4070841;29;20212;-95
2022/03/21 10:22:53;;;;;;;28.33;17.75;;;18.10;99.90;;;;;;4088483;29;20188;-94
2022/03/21 10:25:05;;;;;;;28.42;17.38;;;18.10;99.90;;;;;;4071041;29;20305;-94
2022/03/21 10:27:24;;;;;;;27.90;17.33;;;18.20;99.90;;;;;;4086906;29;20266;-93
2022/03/21 10:29:25;;;;;;;28.45;17.13;;;17.90;99.90;;;;;;4086708;29;20203;-94
2022/03/21 10:31:33;;;;;;;32.60;17.73;;;17.70;99.90;;;;;;4086273;29;20175;-94
2022/03/21 10:33:34;;;;;;;27.13;17.27;;;17.20;99.90;;;;;;4102069;28;20198;-94
2022/03/21 10:35:45;;;;;;;28.90;17.08;;;17.00;99.90;;;;;;4068597;29;20701;-94
2022/03/21 10:37:55;;;;;;;26.80;16.60;;;16.90;99.90;;;;;;4085792;29;20190;-94
2022/03/21 10:39:58;;;;;;;32.25;16.20;;;17.00;99.90;;;;;;4086254;29;20174;-92
2022/03/21 10:42:05;;;;;;;28.45;16.05;;;16.80;99.90;;;;;;4086059;29;20242;-94
2022/03/21 10:44:08;;;;;;;31.27;15.93;;;17.10;99.90;;;;;;4071820;29;20221;-92
2022/03/21 10:46:11;;;;;;;28.30;15.90;;;17.20;99.90;;;;;;4070134;29;20204;-93